APG211 RPLL-RPVE
Flight info
| Callsign | APG211 |
|---|---|
| Flight time | 0h 36m |
| Altitude | 23000 |
| Route | VERDE2V VERDE W24 TAPER TAPER7A |
| Aircraft | A20N/M-SDE2E3FGHIRWXY/LB1 |
Departure
| Time | 2026-04-25 12:17 |
|---|---|
| Airport | Ninoy Aquino International Airport (RPLL) |
Arrival
| Time | 2026-04-25 12:53 |
|---|---|
| Airport | Godofredo P. Ramos Airport (RPVE) |
| Time | Latitude | Longitude | Altitude | Speed | Heading |
|---|---|---|---|---|---|
| 2026-04-25 11:42 | 14.50885 | 121.01334 | 82 ft | 0 kts | 329° |
| 2026-04-25 12:05 | 14.50875 | 121.01340 | 82 ft | 2 kts | 329° |
| 2026-04-25 12:05 | 14.50862 | 121.01348 | 82 ft | 2 kts | 329° |
| 2026-04-25 12:05 | 14.50849 | 121.01356 | 81 ft | 2 kts | 329° |
| 2026-04-25 12:06 | 14.50836 | 121.01363 | 81 ft | 2 kts | 329° |
| 2026-04-25 12:06 | 14.50823 | 121.01372 | 81 ft | 2 kts | 329° |
| 2026-04-25 12:06 | 14.50815 | 121.01376 | 82 ft | 2 kts | 326° |
| 2026-04-25 12:06 | 14.50806 | 121.01389 | 82 ft | 2 kts | 291° |
| 2026-04-25 12:07 | 14.50803 | 121.01404 | 82 ft | 2 kts | 264° |
| 2026-04-25 12:07 | 14.50806 | 121.01415 | 82 ft | 0 kts | 243° |
| 2026-04-25 12:07 | 14.50809 | 121.01421 | 82 ft | 0 kts | 240° |
| 2026-04-25 12:07 | 14.50809 | 121.01422 | 82 ft | 0 kts | 240° |
| 2026-04-25 12:09 | 14.50808 | 121.01419 | 82 ft | 1 kts | 240° |
| 2026-04-25 12:09 | 14.50798 | 121.01402 | 82 ft | 4 kts | 240° |
| 2026-04-25 12:09 | 14.50778 | 121.01366 | 82 ft | 6 kts | 240° |
| 2026-04-25 12:10 | 14.50766 | 121.01344 | 82 ft | 0 kts | 241° |
| 2026-04-25 12:10 | 14.50766 | 121.01343 | 82 ft | 0 kts | 241° |
| 2026-04-25 12:11 | 14.50764 | 121.01339 | 82 ft | 2 kts | 241° |
| 2026-04-25 12:11 | 14.50746 | 121.01319 | 82 ft | 5 kts | 210° |
| 2026-04-25 12:12 | 14.50698 | 121.01321 | 82 ft | 8 kts | 172° |
| 2026-04-25 12:12 | 14.50661 | 121.01302 | 82 ft | 10 kts | 234° |
| 2026-04-25 12:12 | 14.50603 | 121.01199 | 82 ft | 14 kts | 240° |
| 2026-04-25 12:12 | 14.50548 | 121.01100 | 82 ft | 16 kts | 239° |
| 2026-04-25 12:13 | 14.50488 | 121.00994 | 82 ft | 17 kts | 242° |
| 2026-04-25 12:13 | 14.50427 | 121.00884 | 82 ft | 17 kts | 240° |
| 2026-04-25 12:13 | 14.50365 | 121.00774 | 82 ft | 17 kts | 239° |
| 2026-04-25 12:13 | 14.50305 | 121.00662 | 82 ft | 18 kts | 241° |
| 2026-04-25 12:14 | 14.50243 | 121.00549 | 82 ft | 18 kts | 239° |
| 2026-04-25 12:14 | 14.50178 | 121.00435 | 82 ft | 18 kts | 240° |
| 2026-04-25 12:14 | 14.50115 | 121.00321 | 82 ft | 18 kts | 239° |
| 2026-04-25 12:14 | 14.50050 | 121.00206 | 82 ft | 18 kts | 240° |
| 2026-04-25 12:15 | 14.49987 | 121.00091 | 82 ft | 18 kts | 240° |
| 2026-04-25 12:15 | 14.49924 | 120.99983 | 82 ft | 13 kts | 228° |
| 2026-04-25 12:15 | 14.49853 | 120.99975 | 82 ft | 10 kts | 152° |
| 2026-04-25 12:15 | 14.49802 | 121.00024 | 82 ft | 10 kts | 98° |
| 2026-04-25 12:16 | 14.49823 | 121.00083 | 82 ft | 8 kts | 60° |
| 2026-04-25 12:16 | 14.49955 | 121.00319 | 82 ft | 80 kts | 61° |
| 2026-04-25 12:16 | 14.50368 | 121.01064 | 83 ft | 155 kts | 63° |
| 2026-04-25 12:16 | 14.50973 | 121.02171 | 379 ft | 190 kts | 62° |
| 2026-04-25 12:17 | 14.51636 | 121.03316 | 1388 ft | 187 kts | 60° |
| 2026-04-25 12:17 | 14.52254 | 121.04411 | 2409 ft | 182 kts | 60° |
| 2026-04-25 12:17 | 14.52902 | 121.05587 | 3059 ft | 194 kts | 60° |
| 2026-04-25 12:17 | 14.53589 | 121.06844 | 3526 ft | 211 kts | 60° |
| 2026-04-25 12:18 | 14.54351 | 121.08248 | 3913 ft | 235 kts | 60° |
| 2026-04-25 12:18 | 14.55164 | 121.09749 | 4493 ft | 251 kts | 60° |
| 2026-04-25 12:18 | 14.56052 | 121.11385 | 5111 ft | 267 kts | 60° |
| 2026-04-25 12:18 | 14.56848 | 121.13116 | 5866 ft | 274 kts | 75° |
| 2026-04-25 12:19 | 14.56442 | 121.16321 | 7290 ft | 282 kts | 120° |
| 2026-04-25 12:19 | 14.54580 | 121.18216 | 8421 ft | 288 kts | 144° |
| 2026-04-25 12:19 | 14.52885 | 121.19347 | 9221 ft | 293 kts | 146° |
| 2026-04-25 12:20 | 14.51162 | 121.20433 | 10041 ft | 296 kts | 148° |
| 2026-04-25 12:20 | 14.49248 | 121.21291 | 10701 ft | 306 kts | 169° |
| 2026-04-25 12:20 | 14.47053 | 121.21233 | 11097 ft | 323 kts | 190° |
| 2026-04-25 12:20 | 14.44792 | 121.20711 | 11451 ft | 341 kts | 194° |
| 2026-04-25 12:21 | 14.42437 | 121.20129 | 11770 ft | 358 kts | 193° |
| 2026-04-25 12:21 | 14.39956 | 121.19566 | 12258 ft | 367 kts | 192° |
| 2026-04-25 12:21 | 14.37446 | 121.19041 | 12983 ft | 370 kts | 192° |
| 2026-04-25 12:21 | 14.34891 | 121.18536 | 13659 ft | 372 kts | 191° |
| 2026-04-25 12:22 | 14.32357 | 121.18052 | 14276 ft | 376 kts | 191° |
| 2026-04-25 12:22 | 14.29751 | 121.17564 | 14883 ft | 380 kts | 191° |
| 2026-04-25 12:22 | 14.27140 | 121.17082 | 15475 ft | 383 kts | 191° |
| 2026-04-25 12:22 | 14.24500 | 121.16598 | 16036 ft | 387 kts | 191° |
| 2026-04-25 12:23 | 14.21822 | 121.16110 | 16575 ft | 390 kts | 191° |
| 2026-04-25 12:23 | 14.19116 | 121.15617 | 17111 ft | 393 kts | 191° |
| 2026-04-25 12:23 | 14.16418 | 121.15128 | 17637 ft | 396 kts | 191° |
| 2026-04-25 12:23 | 14.13673 | 121.14631 | 18178 ft | 399 kts | 191° |
| 2026-04-25 12:24 | 14.10947 | 121.14138 | 18717 ft | 400 kts | 191° |
| 2026-04-25 12:24 | 14.08187 | 121.13638 | 19238 ft | 402 kts | 191° |
| 2026-04-25 12:24 | 14.05408 | 121.13135 | 19740 ft | 405 kts | 191° |
| 2026-04-25 12:24 | 14.02647 | 121.12636 | 20260 ft | 406 kts | 191° |
| 2026-04-25 12:25 | 13.99847 | 121.12125 | 20794 ft | 408 kts | 191° |
| 2026-04-25 12:25 | 13.97002 | 121.11607 | 21227 ft | 412 kts | 191° |
| 2026-04-25 12:25 | 13.94194 | 121.11096 | 21666 ft | 416 kts | 191° |
| 2026-04-25 12:25 | 13.91317 | 121.10577 | 22122 ft | 419 kts | 191° |
| 2026-04-25 12:26 | 13.88408 | 121.10052 | 22594 ft | 421 kts | 191° |
| 2026-04-25 12:26 | 13.85538 | 121.09534 | 22901 ft | 423 kts | 191° |
| 2026-04-25 12:26 | 13.82610 | 121.09006 | 22958 ft | 423 kts | 191° |
| 2026-04-25 12:26 | 13.79724 | 121.08485 | 22957 ft | 422 kts | 191° |
| 2026-04-25 12:27 | 13.76813 | 121.07959 | 22955 ft | 422 kts | 191° |
| 2026-04-25 12:27 | 13.73899 | 121.07433 | 22959 ft | 422 kts | 191° |
| 2026-04-25 12:27 | 13.71005 | 121.06911 | 22952 ft | 422 kts | 191° |
| 2026-04-25 12:27 | 13.68103 | 121.06389 | 22949 ft | 422 kts | 191° |
| 2026-04-25 12:28 | 13.65220 | 121.05869 | 22951 ft | 422 kts | 191° |
| 2026-04-25 12:28 | 13.62302 | 121.05344 | 22954 ft | 422 kts | 191° |
| 2026-04-25 12:28 | 13.59400 | 121.04821 | 22948 ft | 422 kts | 191° |
| 2026-04-25 12:28 | 13.56454 | 121.04291 | 22949 ft | 423 kts | 191° |
| 2026-04-25 12:29 | 13.53561 | 121.03827 | 22945 ft | 424 kts | 186° |
| 2026-04-25 12:29 | 13.50578 | 121.04015 | 22947 ft | 427 kts | 169° |
| 2026-04-25 12:29 | 13.47755 | 121.05032 | 22956 ft | 431 kts | 154° |
| 2026-04-25 12:29 | 13.45216 | 121.06679 | 22974 ft | 431 kts | 147° |
| 2026-04-25 12:30 | 13.42755 | 121.08441 | 22981 ft | 430 kts | 146° |
| 2026-04-25 12:30 | 13.40289 | 121.10214 | 22992 ft | 430 kts | 147° |
| 2026-04-25 12:30 | 13.37834 | 121.11961 | 23004 ft | 430 kts | 147° |
| 2026-04-25 12:30 | 13.35380 | 121.13692 | 23008 ft | 429 kts | 147° |
| 2026-04-25 12:31 | 13.32909 | 121.15422 | 23014 ft | 429 kts | 147° |
| 2026-04-25 12:31 | 13.30452 | 121.17141 | 23012 ft | 428 kts | 147° |
| 2026-04-25 12:31 | 13.27982 | 121.18869 | 23009 ft | 428 kts | 147° |
| 2026-04-25 12:31 | 13.25512 | 121.20599 | 23002 ft | 428 kts | 147° |
| 2026-04-25 12:32 | 13.23045 | 121.22327 | 22989 ft | 428 kts | 147° |
| 2026-04-25 12:32 | 13.20594 | 121.24046 | 22976 ft | 428 kts | 147° |
| 2026-04-25 12:32 | 13.18099 | 121.25794 | 22968 ft | 428 kts | 147° |
| 2026-04-25 12:32 | 13.15647 | 121.27512 | 22973 ft | 429 kts | 147° |
| 2026-04-25 12:33 | 13.13166 | 121.29252 | 22978 ft | 429 kts | 147° |
| 2026-04-25 12:33 | 13.10680 | 121.30994 | 22984 ft | 429 kts | 147° |
| 2026-04-25 12:33 | 13.08217 | 121.32720 | 22985 ft | 429 kts | 147° |
| 2026-04-25 12:33 | 13.05719 | 121.34469 | 22983 ft | 430 kts | 147° |
| 2026-04-25 12:34 | 13.03238 | 121.36205 | 22986 ft | 430 kts | 147° |
| 2026-04-25 12:34 | 13.00788 | 121.37919 | 22982 ft | 429 kts | 147° |
| 2026-04-25 12:34 | 12.98285 | 121.39671 | 22979 ft | 429 kts | 147° |
| 2026-04-25 12:34 | 12.96649 | 121.40816 | 22978 ft | 429 kts | 147° |
| 2026-04-25 12:35 | 12.93351 | 121.43121 | 22970 ft | 429 kts | 147° |
| 2026-04-25 12:35 | 12.90898 | 121.44837 | 22962 ft | 429 kts | 147° |
| 2026-04-25 12:35 | 12.88394 | 121.46588 | 22961 ft | 428 kts | 147° |
| 2026-04-25 12:35 | 12.85925 | 121.48314 | 22957 ft | 428 kts | 147° |
| 2026-04-25 12:36 | 12.83443 | 121.50049 | 22952 ft | 428 kts | 147° |
| 2026-04-25 12:36 | 12.80986 | 121.51765 | 22726 ft | 428 kts | 147° |
| 2026-04-25 12:36 | 12.78540 | 121.53472 | 22344 ft | 424 kts | 147° |
| 2026-04-25 12:36 | 12.76074 | 121.55194 | 21938 ft | 422 kts | 146° |
| 2026-04-25 12:37 | 12.73668 | 121.56873 | 21455 ft | 418 kts | 146° |
| 2026-04-25 12:37 | 12.71267 | 121.58549 | 20936 ft | 415 kts | 146° |
| 2026-04-25 12:37 | 12.68884 | 121.60212 | 20402 ft | 412 kts | 146° |
| 2026-04-25 12:37 | 12.66521 | 121.61861 | 19868 ft | 410 kts | 146° |
| 2026-04-25 12:38 | 12.64155 | 121.63512 | 19329 ft | 407 kts | 146° |
| 2026-04-25 12:38 | 12.61829 | 121.65135 | 18796 ft | 404 kts | 146° |
| 2026-04-25 12:38 | 12.59517 | 121.66746 | 18257 ft | 402 kts | 146° |
| 2026-04-25 12:38 | 12.57186 | 121.68370 | 17696 ft | 400 kts | 146° |
| 2026-04-25 12:39 | 12.54888 | 121.69971 | 17127 ft | 399 kts | 145° |
| 2026-04-25 12:39 | 12.52611 | 121.71559 | 16567 ft | 397 kts | 145° |
| 2026-04-25 12:39 | 12.50334 | 121.73150 | 16025 ft | 395 kts | 145° |
| 2026-04-25 12:39 | 12.48073 | 121.74728 | 15486 ft | 392 kts | 146° |
| 2026-04-25 12:40 | 12.45832 | 121.76291 | 14978 ft | 389 kts | 146° |
| 2026-04-25 12:40 | 12.43600 | 121.77846 | 14521 ft | 384 kts | 146° |
| 2026-04-25 12:40 | 12.41394 | 121.79382 | 13810 ft | 386 kts | 146° |
| 2026-04-25 12:40 | 12.39160 | 121.80936 | 13067 ft | 388 kts | 146° |
| 2026-04-25 12:41 | 12.36838 | 121.82352 | 12474 ft | 385 kts | 153° |
| 2026-04-25 12:41 | 12.34390 | 121.83392 | 11921 ft | 381 kts | 161° |
| 2026-04-25 12:41 | 12.31856 | 121.84185 | 11331 ft | 370 kts | 163° |
| 2026-04-25 12:41 | 12.29421 | 121.84901 | 10376 ft | 362 kts | 163° |
| 2026-04-25 12:42 | 12.27051 | 121.85590 | 9650 ft | 351 kts | 163° |
| 2026-04-25 12:42 | 12.25496 | 121.86046 | 9314 ft | 350 kts | 163° |
| 2026-04-25 12:42 | 12.22357 | 121.86970 | 8991 ft | 348 kts | 162° |
| 2026-04-25 12:42 | 12.20008 | 121.87667 | 8978 ft | 349 kts | 162° |
| 2026-04-25 12:43 | 12.17677 | 121.88363 | 8982 ft | 348 kts | 162° |
| 2026-04-25 12:43 | 12.15357 | 121.89054 | 8978 ft | 337 kts | 162° |
| 2026-04-25 12:43 | 12.11053 | 121.90332 | 8956 ft | 308 kts | 162° |
| 2026-04-25 12:44 | 12.09006 | 121.90941 | 8729 ft | 300 kts | 162° |
| 2026-04-25 12:44 | 12.06990 | 121.91529 | 8299 ft | 300 kts | 165° |
| 2026-04-25 12:44 | 12.03087 | 121.90577 | 7595 ft | 303 kts | 224° |
| 2026-04-25 12:45 | 12.01850 | 121.88852 | 7301 ft | 300 kts | 236° |
| 2026-04-25 12:45 | 12.00728 | 121.87063 | 6950 ft | 297 kts | 235° |
| 2026-04-25 12:45 | 11.98432 | 121.83566 | 6151 ft | 297 kts | 233° |
| 2026-04-25 12:46 | 11.97246 | 121.81822 | 5826 ft | 294 kts | 233° |
| 2026-04-25 12:46 | 11.96077 | 121.80115 | 5493 ft | 292 kts | 233° |
| 2026-04-25 12:46 | 11.94906 | 121.78416 | 5039 ft | 295 kts | 233° |
| 2026-04-25 12:46 | 11.93721 | 121.76698 | 4587 ft | 298 kts | 233° |
| 2026-04-25 12:47 | 11.92505 | 121.75005 | 4283 ft | 292 kts | 226° |
| 2026-04-25 12:47 | 11.90867 | 121.73872 | 3962 ft | 280 kts | 192° |
| 2026-04-25 12:47 | 11.89007 | 121.73842 | 3782 ft | 258 kts | 158° |
| 2026-04-25 12:47 | 11.87455 | 121.74580 | 3779 ft | 239 kts | 145° |
| 2026-04-25 12:48 | 11.85909 | 121.75480 | 3986 ft | 252 kts | 146° |
| 2026-04-25 12:48 | 11.84468 | 121.76453 | 4003 ft | 240 kts | 128° |
| 2026-04-25 12:48 | 11.83778 | 121.77885 | 3754 ft | 225 kts | 92° |
| 2026-04-25 12:48 | 11.84112 | 121.79399 | 3498 ft | 219 kts | 63° |
| 2026-04-25 12:49 | 11.84869 | 121.80735 | 3214 ft | 217 kts | 60° |
| 2026-04-25 12:49 | 11.85628 | 121.82054 | 2752 ft | 210 kts | 61° |
| 2026-04-25 12:49 | 11.86303 | 121.83286 | 2483 ft | 187 kts | 62° |
| 2026-04-25 12:49 | 11.86894 | 121.84404 | 2367 ft | 169 kts | 63° |
| 2026-04-25 12:50 | 11.87421 | 121.85424 | 2089 ft | 157 kts | 63° |
| 2026-04-25 12:50 | 11.87909 | 121.86378 | 1873 ft | 144 kts | 63° |
| 2026-04-25 12:50 | 11.88353 | 121.87259 | 1679 ft | 137 kts | 63° |
| 2026-04-25 12:50 | 11.88784 | 121.88114 | 1494 ft | 135 kts | 63° |
| 2026-04-25 12:51 | 11.89214 | 121.88965 | 1307 ft | 134 kts | 63° |
| 2026-04-25 12:51 | 11.89420 | 121.89372 | 1229 ft | 134 kts | 63° |
| 2026-04-25 12:51 | 11.89848 | 121.90218 | 1056 ft | 134 kts | 63° |
| 2026-04-25 12:51 | 11.90276 | 121.91065 | 874 ft | 133 kts | 64° |
| 2026-04-25 12:52 | 11.90700 | 121.91907 | 698 ft | 133 kts | 64° |
| 2026-04-25 12:52 | 11.91113 | 121.92738 | 525 ft | 132 kts | 64° |
| 2026-04-25 12:52 | 11.91552 | 121.93574 | 347 ft | 132 kts | 62° |
| 2026-04-25 12:52 | 11.91971 | 121.94402 | 170 ft | 129 kts | 64° |
| 2026-04-25 12:53 | 11.92368 | 121.95210 | 37 ft | 127 kts | 63° |
| 2026-04-25 12:53 | 11.92667 | 121.95811 | 30 ft | 57 kts | 64° |
| 2026-04-25 12:53 | 11.92838 | 121.96152 | 30 ft | 47 kts | 63° |
| 2026-04-25 12:53 | 11.92924 | 121.96325 | 30 ft | 19 kts | 64° |
| 2026-04-25 12:54 | 11.92956 | 121.96439 | 30 ft | 13 kts | 109° |
| 2026-04-25 12:54 | 11.92887 | 121.96493 | 30 ft | 12 kts | 154° |
| 2026-04-25 12:54 | 11.92820 | 121.96523 | 30 ft | 8 kts | 169° |
| 2026-04-25 12:54 | 11.92778 | 121.96497 | 30 ft | 7 kts | 243° |
| 2026-04-25 12:55 | 11.92751 | 121.96442 | 30 ft | 9 kts | 244° |
| 2026-04-25 12:55 | 11.92731 | 121.96401 | 30 ft | 9 kts | 244° |
| 2026-04-25 12:55 | 11.92701 | 121.96381 | 30 ft | 3 kts | 164° |
| 2026-04-25 12:55 | 11.92684 | 121.96390 | 30 ft | 1 kts | 151° |
| 2026-04-25 12:56 | 11.92669 | 121.96397 | 30 ft | 1 kts | 153° |
| 2026-04-25 12:56 | 11.92665 | 121.96400 | 30 ft | 0 kts | 153° |